SWR9EB LEPA-LSZH
Flight info
| Callsign | SWR9EB |
|---|---|
| Flight time | N/A |
| Altitude | 36000 |
| Route | MEROS DCT LAPIT DCT CHELY DCT LUMAS DCT MAXIR DCT LUSOL DCT BODRU DCT OKTET DCT IRMAR DCT KINES DCT VANAS DCT MOBLO DCT LAMUR DCT KORED N871 BERSU |
| Aircraft | A320/M-SDE3FGHIRWY/LB1 |
Departure
| Time | N/A |
|---|---|
| Airport | Palma de Mallorca Airport (LEPA) |
Arrival
| Time | 2026-05-07 11:19 |
|---|---|
| Airport | Zürich Airport (LSZH) |
| Time | Latitude | Longitude | Altitude | Speed | Heading |
|---|---|---|---|---|---|
| 2026-05-07 10:52 | 45.81174 | 6.73108 | 36022 ft | 447 kts | 8° |
| 2026-05-07 10:53 | 45.87054 | 6.76211 | 36013 ft | 454 kts | 20° |
| 2026-05-07 10:53 | 45.92796 | 6.79981 | 36006 ft | 454 kts | 20° |
| 2026-05-07 10:54 | 45.98545 | 6.83746 | 36018 ft | 454 kts | 20° |
| 2026-05-07 10:54 | 46.04299 | 6.87512 | 36016 ft | 454 kts | 20° |
| 2026-05-07 10:55 | 46.10053 | 6.91288 | 36018 ft | 454 kts | 20° |
| 2026-05-07 10:55 | 46.15816 | 6.95073 | 36043 ft | 455 kts | 21° |
| 2026-05-07 10:56 | 46.21569 | 6.98881 | 36037 ft | 455 kts | 21° |
| 2026-05-07 10:56 | 46.27283 | 7.02668 | 36037 ft | 455 kts | 21° |
| 2026-05-07 10:57 | 46.33033 | 7.06486 | 36019 ft | 455 kts | 21° |
| 2026-05-07 10:57 | 46.35909 | 7.08400 | 35785 ft | 454 kts | 21° |
| 2026-05-07 10:57 | 46.38773 | 7.10308 | 35537 ft | 452 kts | 21° |
| 2026-05-07 10:58 | 46.41624 | 7.12202 | 35279 ft | 449 kts | 21° |
| 2026-05-07 10:58 | 46.44455 | 7.14087 | 35052 ft | 447 kts | 21° |
| 2026-05-07 10:58 | 46.47269 | 7.15969 | 34811 ft | 444 kts | 21° |
| 2026-05-07 10:58 | 46.50065 | 7.17842 | 34573 ft | 441 kts | 21° |
| 2026-05-07 10:59 | 46.52851 | 7.19709 | 34342 ft | 439 kts | 21° |
| 2026-05-07 10:59 | 46.55611 | 7.21559 | 33887 ft | 436 kts | 21° |
| 2026-05-07 10:59 | 46.58359 | 7.23400 | 33360 ft | 433 kts | 21° |
| 2026-05-07 10:59 | 46.61082 | 7.25227 | 32857 ft | 429 kts | 21° |
| 2026-05-07 11:00 | 46.63778 | 7.27041 | 32364 ft | 425 kts | 21° |
| 2026-05-07 11:00 | 46.66451 | 7.28841 | 31874 ft | 422 kts | 22° |
| 2026-05-07 11:00 | 46.69105 | 7.30630 | 31391 ft | 418 kts | 22° |
| 2026-05-07 11:00 | 46.71732 | 7.32399 | 30917 ft | 415 kts | 22° |
| 2026-05-07 11:01 | 46.74351 | 7.34161 | 30459 ft | 412 kts | 23° |
| 2026-05-07 11:01 | 46.76932 | 7.35903 | 29971 ft | 408 kts | 23° |
| 2026-05-07 11:01 | 46.79496 | 7.37640 | 29495 ft | 402 kts | 23° |
| 2026-05-07 11:01 | 46.82007 | 7.39349 | 29071 ft | 396 kts | 25° |
| 2026-05-07 11:02 | 46.84352 | 7.41405 | 28643 ft | 391 kts | 35° |
| 2026-05-07 11:02 | 46.86392 | 7.44003 | 28228 ft | 387 kts | 45° |
| 2026-05-07 11:02 | 46.88112 | 7.47012 | 27814 ft | 383 kts | 50° |
| 2026-05-07 11:02 | 46.89756 | 7.50050 | 27385 ft | 378 kts | 50° |
| 2026-05-07 11:03 | 46.91379 | 7.53041 | 26975 ft | 374 kts | 50° |
| 2026-05-07 11:03 | 46.92990 | 7.56007 | 26552 ft | 371 kts | 50° |
| 2026-05-07 11:03 | 46.94588 | 7.58949 | 26138 ft | 368 kts | 50° |
| 2026-05-07 11:03 | 46.96152 | 7.61834 | 25718 ft | 365 kts | 50° |
| 2026-05-07 11:04 | 46.97724 | 7.64742 | 25295 ft | 363 kts | 50° |
| 2026-05-07 11:04 | 46.99308 | 7.67676 | 24863 ft | 362 kts | 50° |
| 2026-05-07 11:04 | 47.00845 | 7.70522 | 24428 ft | 360 kts | 50° |
| 2026-05-07 11:04 | 47.02398 | 7.73397 | 23978 ft | 359 kts | 50° |
| 2026-05-07 11:05 | 47.03947 | 7.76265 | 23544 ft | 358 kts | 50° |
| 2026-05-07 11:05 | 47.05489 | 7.79128 | 23071 ft | 357 kts | 50° |
| 2026-05-07 11:05 | 47.07020 | 7.81970 | 22644 ft | 354 kts | 50° |
| 2026-05-07 11:05 | 47.08540 | 7.84792 | 22216 ft | 351 kts | 50° |
| 2026-05-07 11:06 | 47.10049 | 7.87599 | 21805 ft | 349 kts | 50° |
| 2026-05-07 11:06 | 47.11550 | 7.90391 | 21382 ft | 347 kts | 50° |
| 2026-05-07 11:06 | 47.13032 | 7.93184 | 20982 ft | 346 kts | 53° |
| 2026-05-07 11:06 | 47.14239 | 7.96241 | 20568 ft | 346 kts | 64° |
| 2026-05-07 11:07 | 47.15254 | 7.99436 | 20159 ft | 344 kts | 64° |
| 2026-05-07 11:07 | 47.16271 | 8.02623 | 19753 ft | 348 kts | 64° |
| 2026-05-07 11:07 | 47.17354 | 8.06002 | 19320 ft | 380 kts | 64° |
| 2026-05-07 11:07 | 47.18495 | 8.09563 | 18859 ft | 388 kts | 64° |
| 2026-05-07 11:08 | 47.19641 | 8.13159 | 18339 ft | 388 kts | 64° |
| 2026-05-07 11:08 | 47.20812 | 8.16724 | 17779 ft | 386 kts | 59° |
| 2026-05-07 11:08 | 47.22545 | 8.19644 | 17278 ft | 378 kts | 34° |
| 2026-05-07 11:08 | 47.24901 | 8.21183 | 16792 ft | 369 kts | 8° |
| 2026-05-07 11:09 | 47.27423 | 8.21104 | 16360 ft | 362 kts | 343° |
| 2026-05-07 11:09 | 47.29730 | 8.19684 | 15934 ft | 359 kts | 331° |
| 2026-05-07 11:09 | 47.31956 | 8.18029 | 15500 ft | 358 kts | 331° |
| 2026-05-07 11:09 | 47.34168 | 8.16365 | 15065 ft | 356 kts | 331° |
| 2026-05-07 11:10 | 47.36364 | 8.14711 | 14640 ft | 354 kts | 331° |
| 2026-05-07 11:10 | 47.38562 | 8.13061 | 14213 ft | 353 kts | 331° |
| 2026-05-07 11:10 | 47.40744 | 8.11424 | 13775 ft | 351 kts | 331° |
| 2026-05-07 11:10 | 47.42911 | 8.09800 | 13312 ft | 349 kts | 331° |
| 2026-05-07 11:11 | 47.45069 | 8.08182 | 12867 ft | 347 kts | 331° |
| 2026-05-07 11:11 | 47.47218 | 8.06584 | 12433 ft | 345 kts | 333° |
| 2026-05-07 11:11 | 47.49498 | 8.05641 | 12013 ft | 346 kts | 353° |
| 2026-05-07 11:11 | 47.51851 | 8.05900 | 11853 ft | 332 kts | 13° |
| 2026-05-07 11:12 | 47.53915 | 8.07173 | 11616 ft | 315 kts | 28° |
| 2026-05-07 11:12 | 47.55805 | 8.08848 | 10813 ft | 318 kts | 30° |
| 2026-05-07 11:12 | 47.57665 | 8.10558 | 10314 ft | 311 kts | 30° |
| 2026-05-07 11:12 | 47.59475 | 8.12248 | 9903 ft | 304 kts | 30° |
| 2026-05-07 11:13 | 47.61242 | 8.13904 | 9461 ft | 297 kts | 32° |
| 2026-05-07 11:13 | 47.62808 | 8.15899 | 9036 ft | 297 kts | 46° |
| 2026-05-07 11:13 | 47.64227 | 8.18160 | 8592 ft | 301 kts | 46° |
| 2026-05-07 11:13 | 47.65666 | 8.20445 | 8140 ft | 305 kts | 46° |
| 2026-05-07 11:14 | 47.67016 | 8.22873 | 7665 ft | 307 kts | 61° |
| 2026-05-07 11:14 | 47.67570 | 8.25914 | 6954 ft | 308 kts | 92° |
| 2026-05-07 11:14 | 47.66990 | 8.28877 | 6374 ft | 296 kts | 126° |
| 2026-05-07 11:14 | 47.65522 | 8.30789 | 5988 ft | 274 kts | 158° |
| 2026-05-07 11:15 | 47.63863 | 8.31911 | 5635 ft | 260 kts | 150° |
| 2026-05-07 11:15 | 47.62557 | 8.33722 | 5300 ft | 258 kts | 135° |
| 2026-05-07 11:15 | 47.61301 | 8.35641 | 4961 ft | 254 kts | 138° |
| 2026-05-07 11:15 | 47.60016 | 8.37431 | 4614 ft | 253 kts | 140° |
| 2026-05-07 11:16 | 47.58726 | 8.39194 | 4273 ft | 253 kts | 139° |
| 2026-05-07 11:16 | 47.57453 | 8.40940 | 3925 ft | 245 kts | 139° |
| 2026-05-07 11:16 | 47.56242 | 8.42604 | 3606 ft | 235 kts | 139° |
| 2026-05-07 11:16 | 47.55063 | 8.44221 | 3319 ft | 227 kts | 139° |
| 2026-05-07 11:17 | 47.53932 | 8.45772 | 3011 ft | 217 kts | 140° |
| 2026-05-07 11:17 | 47.52855 | 8.47250 | 2743 ft | 207 kts | 140° |
| 2026-05-07 11:17 | 47.51844 | 8.48635 | 2485 ft | 189 kts | 140° |
| 2026-05-07 11:17 | 47.50909 | 8.49915 | 2193 ft | 178 kts | 141° |
| 2026-05-07 11:18 | 47.50051 | 8.51090 | 1951 ft | 161 kts | 140° |
| 2026-05-07 11:18 | 47.49252 | 8.52182 | 1732 ft | 154 kts | 139° |
| 2026-05-07 11:18 | 47.48480 | 8.53238 | 1525 ft | 147 kts | 139° |
| 2026-05-07 11:18 | 47.47754 | 8.54227 | 1397 ft | 130 kts | 136° |
| 2026-05-07 11:19 | 47.47213 | 8.54967 | 1384 ft | 81 kts | 137° |
| 2026-05-07 11:19 | 47.46906 | 8.55386 | 1389 ft | 51 kts | 137° |
| 2026-05-07 11:19 | 47.46648 | 8.55738 | 1398 ft | 49 kts | 137° |
| 2026-05-07 11:19 | 47.46391 | 8.55952 | 1405 ft | 33 kts | 167° |
| 2026-05-07 11:20 | 47.46258 | 8.56000 | 1408 ft | 15 kts | 163° |
| 2026-05-07 11:20 | 47.46169 | 8.56054 | 1409 ft | 13 kts | 146° |
| 2026-05-07 11:20 | 47.46088 | 8.56158 | 1412 ft | 20 kts | 136° |
| 2026-05-07 11:20 | 47.45975 | 8.56307 | 1412 ft | 19 kts | 156° |
| 2026-05-07 11:21 | 47.45852 | 8.56298 | 1415 ft | 19 kts | 187° |
| 2026-05-07 11:21 | 47.45718 | 8.56279 | 1414 ft | 21 kts | 187° |
| 2026-05-07 11:21 | 47.45564 | 8.56255 | 1411 ft | 24 kts | 186° |
| 2026-05-07 11:21 | 47.45478 | 8.56120 | 1407 ft | 22 kts | 278° |
| 2026-05-07 11:22 | 47.45492 | 8.55972 | 1413 ft | 19 kts | 276° |
| 2026-05-07 11:22 | 47.45492 | 8.55876 | 1407 ft | 5 kts | 223° |
| 2026-05-07 11:22 | 47.45455 | 8.55878 | 1407 ft | 8 kts | 187° |
| 2026-05-07 11:22 | 47.45422 | 8.55873 | 1407 ft | 3 kts | 186° |
| 2026-05-07 11:23 | 47.45418 | 8.55872 | 1407 ft | 0 kts | 186° |